Time;durP1;ratioP1;P1;durP2;ratioP2;P2;SDS_P1;SDS_P2;PMS_P1;PMS_P2;Temp;Humidity;BMP_temperature;BMP_pressure;BME280_temperature;BME280_humidity;BME280_pressure;Samples;Min_cycle;Max_cycle;Signal;HPM_P1;HPM_P2
2021/07/14 00:01:18;;;;;;;;;38.00;29.33;;;;;17.37;79.61;101033.28;5041745;28;45400;-67
2021/07/14 00:03:43;;;;;;;;;34.33;29.67;;;;;17.41;79.63;101033.78;5054850;28;46008;-71
2021/07/14 00:06:09;;;;;;;;;39.00;33.33;;;;;17.43;79.50;101029.97;5055803;28;45587;-68
2021/07/14 00:08:34;;;;;;;;;58.75;43.50;;;;;17.42;79.59;101031.00;5056373;28;45881;-69
2021/07/14 00:11:00;;;;;;;;;33.33;29.67;;;;;17.39;79.53;101025.16;5056111;28;45374;-70
2021/07/14 00:24:26;;;;;;;;;28.00;22.67;;;;;17.31;79.42;101029.38;4968427;28;45784;-71
2021/07/14 00:26:52;;;;;;;;;32.33;26.67;;;;;17.29;79.48;101039.34;4963114;28;45488;-70
2021/07/14 00:29:17;;;;;;;;;42.67;33.00;;;;;17.30;79.03;101037.50;4977690;28;45638;-69
2021/07/14 00:31:42;;;;;;;;;38.00;31.00;;;;;17.27;79.34;101040.47;4973319;28;45500;-72
2021/07/14 00:34:08;;;;;;;;;34.00;27.67;;;;;17.26;79.14;101038.78;4964493;28;46180;-70
2021/07/14 00:36:33;;;;;;;;;41.00;33.33;;;;;17.24;79.21;101044.25;4968202;28;45588;-71
2021/07/14 00:38:59;;;;;;;;;42.33;32.67;;;;;17.21;79.13;101039.22;4970863;28;45450;-71
2021/07/14 00:41:24;;;;;;;;;46.00;35.33;;;;;17.20;79.26;101042.84;4967680;28;45600;-68
2021/07/14 00:43:50;;;;;;;;;38.67;31.33;;;;;17.18;79.30;101036.88;4973472;28;45976;-74
2021/07/14 00:46:20;;;;;;;;;29.33;22.67;;;;;17.16;79.40;101036.19;4971566;28;45417;-69
2021/07/14 00:48:47;;;;;;;;;26.00;23.33;;;;;17.13;79.29;101039.97;4961473;28;45299;-69
2021/07/14 00:51:12;;;;;;;;;28.33;24.00;;;;;17.11;79.42;101038.44;4961326;28;45586;-70
2021/07/14 00:53:38;;;;;;;;;28.33;24.00;;;;;17.09;79.33;101035.13;5018229;28;45285;-72
2021/07/14 00:56:04;;;;;;;;;29.67;26.33;;;;;17.08;79.37;101044.06;5054050;28;45285;-72
2021/07/14 00:58:32;;;;;;;;;22.33;20.33;;;;;17.08;79.35;101038.75;5056961;28;45498;-71
2021/07/14 01:00:58;;;;;;;;;31.67;27.00;;;;;17.11;79.57;101041.09;5038802;28;45607;-72
2021/07/14 01:03:26;;;;;;;;;29.00;26.00;;;;;17.16;79.14;101041.50;5055052;28;46123;-72
2021/07/14 01:05:54;;;;;;;;;37.67;31.33;;;;;17.17;79.33;101048.47;5055023;28;45455;-73
2021/07/14 01:08:39;;;;;;;;;44.33;34.00;;;;;17.13;79.20;101034.66;5052945;28;45362;-72
2021/07/14 01:11:09;;;;;;;;;24.33;23.33;;;;;17.15;79.53;101034.50;5055097;28;45456;-72
2021/07/14 01:13:41;;;;;;;;;28.67;25.00;;;;;17.18;79.39;101047.50;5054920;28;47214;-71
2021/07/14 01:16:11;;;;;;;;;39.00;30.00;;;;;17.20;79.45;101042.84;5054453;28;45452;-73
2021/07/14 01:18:50;;;;;;;;;28.00;24.67;;;;;17.28;79.10;101045.63;5055193;28;45694;-72
2021/07/14 01:21:15;;;;;;;;;21.00;20.33;;;;;17.33;78.91;101047.81;5055913;28;45501;-72
2021/07/14 01:23:52;;;;;;;;;30.33;26.33;;;;;17.30;78.50;101043.63;5053870;28;47340;-72
2021/07/14 01:26:54;;;;;;;;;29.33;23.33;;;;;17.26;78.68;101050.22;5056312;28;45443;-71
2021/07/14 01:29:21;;;;;;;;;28.67;25.67;;;;;17.24;78.77;101054.88;5043264;28;45525;-73
2021/07/14 01:31:49;;;;;;;;;26.33;23.33;;;;;17.22;78.85;101045.38;5053711;28;45540;-71
2021/07/14 01:34:16;;;;;;;;;20.67;20.67;;;;;17.22;78.87;101045.38;5038152;28;45988;-72
2021/07/14 01:36:44;;;;;;;;;22.67;21.33;;;;;17.21;78.33;101047.19;5053104;28;45604;-72
2021/07/14 01:39:11;;;;;;;;;24.33;19.00;;;;;17.16;78.19;101044.16;5053563;28;46220;-72
2021/07/14 01:41:41;;;;;;;;;19.67;19.00;;;;;17.10;78.42;101039.44;5053736;28;45347;-72
2021/07/14 01:44:07;;;;;;;;;19.33;16.33;;;;;17.06;78.42;101035.41;5054404;28;46124;-72
2021/07/14 01:46:35;;;;;;;;;21.00;16.33;;;;;17.04;78.59;101026.78;5054956;28;45591;-72
2021/07/14 01:49:08;;;;;;;;;19.67;16.00;;;;;17.04;78.54;101032.91;5056377;28;45436;-71
2021/07/14 01:51:37;;;;;;;;;19.00;17.67;;;;;17.11;78.44;101034.00;5054233;28;45329;-72
2021/07/14 01:54:04;;;;;;;;;14.67;14.33;;;;;17.13;77.76;101033.84;5053849;28;46078;-71
2021/07/14 01:56:33;;;;;;;;;16.67;14.33;;;;;17.13;77.71;101025.88;5054309;28;45374;-71
2021/07/14 01:59:00;;;;;;;;;19.33;15.00;;;;;17.12;78.30;101029.50;5057087;28;45406;-71
2021/07/14 02:01:27;;;;;;;;;12.67;12.67;;;;;17.16;77.93;101033.53;5059718;28;45434;-71
2021/07/14 02:04:29;;;;;;;;;22.00;16.00;;;;;17.16;77.28;101025.56;5053950;28;46063;-71
2021/07/14 02:06:43;;;;;;;;;15.33;11.67;;;;;17.17;77.35;101034.38;5053281;28;45717;-72
2021/07/14 02:09:10;;;;;;;;;13.33;12.00;;;;;17.13;77.19;101025.88;5053364;28;45748;-72
2021/07/14 02:11:36;;;;;;;;;17.33;14.00;;;;;17.13;77.75;101012.59;5053643;28;45440;-72
2021/07/14 02:14:01;;;;;;;;;14.33;13.33;;;;;17.16;77.13;101009.63;5052645;28;46094;-71
2021/07/14 02:16:30;;;;;;;;;13.00;11.33;;;;;17.16;77.15;101020.25;5055589;28;45458;-69
2021/07/14 02:18:59;;;;;;;;;10.67;10.67;;;;;17.14;76.42;101019.59;5054696;28;45646;-71
2021/07/14 02:21:26;;;;;;;;;14.00;10.00;;;;;17.05;76.59;101015.19;5053594;28;45622;-74
2021/07/14 02:23:52;;;;;;;;;11.00;9.00;;;;;16.98;76.59;101013.13;5053276;28;46371;-70
2021/07/14 02:26:17;;;;;;;;;12.00;9.33;;;;;16.97;76.55;101015.94;5053237;28;45580;-74
2021/07/14 02:28:43;;;;;;;;;9.33;8.67;;;;;16.95;76.60;101029.31;5053723;28;45657;-74
2021/07/14 02:31:08;;;;;;;;;10.00;10.00;;;;;16.89;76.08;101018.44;5056343;28;45324;-75
2021/07/14 02:33:34;;;;;;;;;11.33;9.00;;;;;16.81;76.16;101027.13;5053845;28;47261;-74
2021/07/14 02:36:03;;;;;;;;;11.67;8.33;;;;;16.75;76.29;101035.69;5054482;28;45292;-78
2021/07/14 02:38:35;;;;;;;;;10.00;10.00;;;;;16.69;76.31;101033.63;5053708;28;45379;-74
2021/07/14 02:41:07;;;;;;;;;9.00;8.00;;;;;16.66;76.80;101040.06;5052142;28;45594;-72
2021/07/14 02:43:35;;;;;;;;;11.67;9.67;;;;;16.63;76.62;101041.19;5053447;28;47176;-74
2021/07/14 02:46:04;;;;;;;;;9.00;9.00;;;;;16.61;76.61;101043.13;5055628;28;45321;-73
2021/07/14 02:48:31;;;;;;;;;14.00;11.00;;;;;16.59;76.91;101041.63;5054095;28;45331;-74
2021/07/14 02:51:00;;;;;;;;;12.00;11.33;;;;;16.55;77.08;101051.66;5053634;28;45486;-74
2021/07/14 02:53:30;;;;;;;;;13.67;12.00;;;;;16.52;76.99;101046.66;5051968;28;47103;-74
2021/07/14 02:56:02;;;;;;;;;14.33;12.00;;;;;16.52;76.97;101051.16;5019292;28;45512;-73
2021/07/14 02:58:30;;;;;;;;;13.67;11.33;;;;;16.51;77.23;101052.94;5054470;28;45344;-73
2021/07/14 03:00:58;;;;;;;;;15.67;13.33;;;;;16.53;77.08;101050.16;5054048;28;45616;-72
2021/07/14 03:03:23;;;;;;;;;14.33;12.00;;;;;16.57;77.04;101060.31;5053331;28;45566;-72
2021/07/14 03:05:55;;;;;;;;;13.00;12.00;;;;;16.57;77.14;101048.91;5035178;28;45600;-74
2021/07/14 03:08:25;;;;;;;;;12.00;11.00;;;;;16.56;77.28;101050.69;5053135;28;45503;-74
2021/07/14 03:10:55;;;;;;;;;15.33;10.33;;;;;16.56;76.96;101050.69;5053399;28;45510;-76
2021/07/14 03:13:21;;;;;;;;;14.33;10.67;;;;;16.56;77.09;101044.56;5051714;28;46398;-70
2021/07/14 03:15:47;;;;;;;;;11.00;6.33;;;;;16.55;77.49;101046.38;5035474;28;45504;-69
2021/07/14 03:18:14;;;;;;;;;9.33;8.67;;;;;16.56;77.11;101045.41;5052654;28;45506;-69
2021/07/14 03:20:40;;;;;;;;;11.67;10.00;;;;;16.58;77.39;101040.78;5052008;28;45467;-76
2021/07/14 03:23:07;;;;;;;;;12.00;8.33;;;;;16.62;77.04;101049.31;5052865;28;45716;-74
2021/07/14 03:25:33;;;;;;;;;10.00;9.00;;;;;16.63;76.91;101046.50;5054166;28;45431;-74
2021/07/14 03:28:00;;;;;;;;;12.00;8.67;;;;;16.67;76.73;101058.47;5033184;28;45402;-75
2021/07/14 03:30:26;;;;;;;;;10.67;7.33;;;;;16.67;76.70;101063.78;5049773;28;45517;-74
2021/07/14 03:32:51;;;;;;;;;9.33;8.33;;;;;16.69;76.97;101068.94;5050116;28;47197;-74
2021/07/14 03:35:17;;;;;;;;;9.33;8.00;;;;;16.70;76.89;101073.25;5036312;28;45408;-74
2021/07/14 03:37:47;;;;;;;;;9.00;7.33;;;;;16.70;76.63;101072.41;5053088;28;45550;-75
2021/07/14 03:40:14;;;;;;;;;8.00;7.67;;;;;16.68;76.56;101067.25;5057138;28;45477;-75
2021/07/14 03:42:40;;;;;;;;;6.00;6.00;;;;;16.66;76.75;101067.41;5052192;28;46585;-75
2021/07/14 03:45:07;;;;;;;;;9.00;8.33;;;;;16.71;76.67;101066.97;5053129;28;45300;-74
2021/07/14 03:47:33;;;;;;;;;9.00;8.00;;;;;16.74;76.68;101068.50;5053640;28;45356;-74
2021/07/14 03:50:01;;;;;;;;;8.33;8.33;;;;;16.74;76.41;101074.63;5068111;28;45511;-75
2021/07/14 03:52:26;;;;;;;;;7.67;7.00;;;;;16.73;76.71;101078.28;5053009;28;45994;-75
2021/07/14 03:54:53;;;;;;;;;8.00;8.00;;;;;16.71;76.42;101080.25;5053384;28;45435;-74
2021/07/14 03:57:18;;;;;;;;;8.67;7.67;;;;;16.74;76.37;101076.47;5052401;28;45565;-75
2021/07/14 03:59:44;;;;;;;;;8.00;7.00;;;;;16.74;76.51;101084.44;5051705;28;47445;-74
2021/07/14 04:02:12;;;;;;;;;9.33;9.00;;;;;16.75;76.16;101081.63;5051634;28;45555;-75
2021/07/14 04:04:38;;;;;;;;;7.67;6.33;;;;;16.74;76.31;101090.56;5052615;28;45491;-74
2021/07/14 04:07:14;;;;;;;;;8.67;6.33;;;;;16.72;76.43;101087.19;5052308;28;45422;-74
2021/07/14 04:09:45;;;;;;;;;8.00;6.67;;;;;16.65;76.09;101079.00;5052247;28;45565;-73
2021/07/14 04:12:12;;;;;;;;;10.00;8.00;;;;;16.68;76.06;101088.47;5050700;28;47207;-74
2021/07/14 04:14:37;;;;;;;;;8.00;8.00;;;;;16.71;76.41;101090.00;5053903;28;45393;-75
2021/07/14 04:17:03;;;;;;;;;8.67;7.00;;;;;16.72;76.08;101091.69;5054426;28;45514;-74
2021/07/14 04:19:28;;;;;;;;;8.00;6.67;;;;;16.70;75.92;101093.63;5056419;28;45449;-74
2021/07/14 04:21:54;;;;;;;;;7.00;7.00;;;;;16.71;75.88;101090.84;5055905;28;45525;-74
2021/07/14 04:24:20;;;;;;;;;7.00;5.33;;;;;16.74;75.76;101097.69;5052676;28;45474;-74
2021/07/14 04:26:46;;;;;;;;;6.00;5.33;;;;;16.72;75.99;101089.84;5053123;28;45743;-74
2021/07/14 04:29:12;;;;;;;;;8.00;6.00;;;;;16.70;75.82;101094.50;5053580;28;45287;-74
2021/07/14 04:31:40;;;;;;;;;7.00;6.67;;;;;16.65;76.17;101081.66;5053463;28;45462;-74
2021/07/14 04:34:06;;;;;;;;;7.00;5.00;;;;;16.66;76.02;101085.97;5053880;28;45537;-74
2021/07/14 04:36:33;;;;;;;;;10.33;8.00;;;;;16.67;76.15;101087.66;5053596;28;45362;-75
2021/07/14 04:38:58;;;;;;;;;7.00;7.00;;;;;16.69;75.83;101084.03;5051149;28;45457;-74
2021/07/14 04:41:25;;;;;;;;;7.00;6.33;;;;;16.67;75.97;101079.69;5051651;28;46207;-74
2021/07/14 04:43:50;;;;;;;;;6.00;6.00;;;;;16.66;75.70;101080.66;5035790;28;45449;-73
2021/07/14 04:46:16;;;;;;;;;10.33;9.00;;;;;16.70;75.85;101089.19;5057848;28;45658;-75
2021/07/14 04:48:41;;;;;;;;;9.00;8.67;;;;;16.67;76.25;101090.31;5054691;28;45254;-73
2021/07/14 04:51:07;;;;;;;;;9.00;7.67;;;;;16.72;76.20;101097.00;5053922;28;45543;-75
2021/07/14 04:53:32;;;;;;;;;8.00;8.00;;;;;16.69;75.98;101091.97;5055676;28;45642;-77
2021/07/14 04:55:59;;;;;;;;;8.00;7.00;;;;;16.68;75.65;101093.78;5039346;28;45770;-76
2021/07/14 04:58:24;;;;;;;;;12.67;8.00;;;;;16.60;75.96;101086.56;5058772;28;45371;-74
2021/07/14 05:00:50;;;;;;;;;11.33;8.00;;;;;16.58;76.05;101080.56;5054910;28;45450;-73
2021/07/14 05:03:15;;;;;;;;;8.00;7.33;;;;;16.61;75.85;101093.53;5056083;28;45541;-75
2021/07/14 05:05:40;;;;;;;;;9.67;7.33;;;;;16.62;76.00;101103.16;5050744;28;45466;-74
2021/07/14 05:08:06;;;;;;;;;8.00;6.00;;;;;16.54;75.84;101095.09;5056051;28;45543;-74
2021/07/14 05:10:31;;;;;;;;;8.33;8.00;;;;;16.64;76.16;101117.13;5056176;28;46484;-74
2021/07/14 05:13:00;;;;;;;;;13.00;8.33;;;;;16.64;76.23;101121.59;5054936;28;45389;-75
2021/07/14 05:15:26;;;;;;;;;7.00;5.33;;;;;16.59;76.21;101116.72;5055026;28;45407;-74
2021/07/14 05:17:51;;;;;;;;;10.67;9.67;;;;;16.60;76.09;101110.41;5053262;28;45473;-74
2021/07/14 05:20:19;;;;;;;;;9.33;7.33;;;;;16.68;76.12;101122.97;5054685;28;46897;-74
2021/07/14 05:22:45;;;;;;;;;8.33;8.33;;;;;16.71;76.04;101127.13;5054233;28;45419;-74
2021/07/14 05:25:11;;;;;;;;;11.33;7.00;;;;;16.64;76.16;101106.53;5057120;28;45445;-73
2021/07/14 05:27:37;;;;;;;;;11.33;10.67;;;;;16.74;76.10;101126.88;5056823;28;45630;-74
2021/07/14 05:30:07;;;;;;;;;11.00;8.00;;;;;16.77;76.01;101126.56;5056905;28;45985;-76
2021/07/14 05:32:33;;;;;;;;;14.67;10.00;;;;;16.72;76.27;101108.41;5057713;28;45428;-74
2021/07/14 05:34:59;;;;;;;;;8.33;6.67;;;;;16.77;75.88;101124.75;5040350;28;46046;-75
2021/07/14 05:37:24;;;;;;;;;9.33;7.00;;;;;16.80;76.02;101126.28;5060869;28;45400;-74
2021/07/14 05:39:49;;;;;;;;;11.33;9.00;;;;;16.80;76.04;101128.91;5057924;28;45541;-74
2021/07/14 05:42:15;;;;;;;;;10.33;8.00;;;;;16.86;76.26;101124.88;5058733;28;45257;-74
2021/07/14 05:44:40;;;;;;;;;10.00;8.00;;;;;16.84;75.86;101122.38;5057242;28;45913;-74
2021/07/14 05:47:06;;;;;;;;;8.67;7.33;;;;;16.92;75.39;101129.63;5055741;28;45416;-75
2021/07/14 05:49:32;;;;;;;;;8.00;7.33;;;;;16.94;75.11;101136.47;5056483;28;46286;-74
2021/07/14 05:51:57;;;;;;;;;11.33;10.00;;;;;16.94;75.36;101132.97;5055186;28;46180;-74
2021/07/14 05:54:23;;;;;;;;;12.67;8.00;;;;;16.90;75.50;101123.59;5054349;28;45423;-74
2021/07/14 05:56:48;;;;;;;;;11.67;11.00;;;;;16.90;75.38;101121.78;5052952;28;45525;-75
2021/07/14 05:59:13;;;;;;;;;12.33;9.67;;;;;16.92;75.52;101130.47;5054845;28;46557;-74
2021/07/14 06:01:39;;;;;;;;;11.00;8.00;;;;;16.93;75.87;101131.28;5054026;28;45523;-74
2021/07/14 06:04:04;;;;;;;;;13.67;10.33;;;;;16.95;75.66;101138.13;5056449;28;45489;-75
2021/07/14 06:06:30;;;;;;;;;7.33;7.33;;;;;16.94;75.74;101127.66;5053848;28;45795;-75
2021/07/14 06:08:55;;;;;;;;;10.33;9.33;;;;;16.96;75.18;101133.66;5048611;28;46307;-74
2021/07/14 06:11:21;;;;;;;;;12.00;11.00;;;;;16.95;75.50;101135.47;5054127;28;45400;-75
2021/07/14 06:13:47;;;;;;;;;12.00;9.00;;;;;16.93;75.23;101123.31;5054207;28;45311;-73
2021/07/14 06:16:12;;;;;;;;;10.67;9.67;;;;;16.91;75.53;101126.13;5037892;28;45528;-74
2021/07/14 06:18:38;;;;;;;;;10.67;9.33;;;;;16.91;75.62;101122.66;5053818;28;45261;-74
2021/07/14 06:21:04;;;;;;;;;9.00;8.67;;;;;16.95;75.35;101130.16;5053799;28;45308;-74
2021/07/14 06:23:30;;;;;;;;;9.67;9.33;;;;;16.89;75.10;101119.25;5054077;28;45316;-76
2021/07/14 06:25:55;;;;;;;;;7.33;7.33;;;;;16.98;75.08;101131.69;5055173;28;45553;-75
2021/07/14 06:28:22;;;;;;;;;10.67;9.67;;;;;16.97;75.15;101136.16;5055959;28;47111;-74
2021/07/14 06:30:48;;;;;;;;;9.00;8.00;;;;;17.01;74.95;101135.84;5054223;28;45489;-73
2021/07/14 06:33:14;;;;;;;;;9.67;9.33;;;;;17.02;74.85;101134.88;5053317;28;45454;-73
2021/07/14 06:35:39;;;;;;;;;7.67;7.67;;;;;17.00;74.91;101132.38;5051860;28;45539;-74
2021/07/14 06:38:05;;;;;;;;;8.67;6.67;;;;;17.06;74.84;101139.75;5053449;28;45527;-75
2021/07/14 06:40:32;;;;;;;;;8.67;8.00;;;;;17.04;74.47;101143.53;5054505;28;45403;-74
2021/07/14 06:42:59;;;;;;;;;7.00;7.00;;;;;17.07;74.42;101148.56;5055188;28;45505;-73
2021/07/14 06:45:27;;;;;;;;;8.67;8.67;;;;;17.08;74.33;101150.22;5053460;28;45618;-75
2021/07/14 06:47:53;;;;;;;;;7.00;6.00;;;;;17.07;74.45;101152.03;5052114;28;47010;-74
2021/07/14 06:50:18;;;;;;;;;9.67;6.00;;;;;17.10;74.25;101153.56;5053321;28;45666;-74
2021/07/14 06:52:44;;;;;;;;;9.00;6.67;;;;;17.13;74.28;101153.28;5053803;28;45585;-74
2021/07/14 06:55:11;;;;;;;;;6.00;6.00;;;;;17.14;73.85;101149.66;5055741;28;45585;-74
2021/07/14 06:57:37;;;;;;;;;5.33;5.33;;;;;17.09;73.70;101141.28;5053591;28;47002;-75
2021/07/14 07:00:08;;;;;;;;;7.00;6.00;;;;;17.11;73.75;101155.22;5053180;28;45328;-75
2021/07/14 07:02:33;;;;;;;;;6.67;5.67;;;;;17.12;74.23;101149.78;5053634;28;45303;-75
2021/07/14 07:04:59;;;;;;;;;6.00;5.33;;;;;17.10;74.33;101146.44;5052129;28;45491;-75
2021/07/14 07:07:25;;;;;;;;;5.67;5.33;;;;;17.18;74.20;101155.47;5054864;28;45377;-75
2021/07/14 07:09:52;;;;;;;;;7.00;7.00;;;;;17.22;74.14;101157.72;5053149;28;45305;-73
2021/07/14 07:12:18;;;;;;;;;6.00;5.33;;;;;17.20;74.03;101154.34;5053973;28;45604;-76
2021/07/14 07:14:43;;;;;;;;;9.33;6.00;;;;;17.24;74.13;101149.59;5047465;28;45518;-75
2021/07/14 07:17:08;;;;;;;;;5.33;4.00;;;;;17.26;74.02;101153.78;5040682;28;47526;-74
2021/07/14 07:19:34;;;;;;;;;6.67;6.67;;;;;17.28;73.94;101156.28;5054909;28;45594;-75
2021/07/14 07:21:59;;;;;;;;;7.33;6.00;;;;;17.38;73.57;101164.19;5053477;28;45412;-75
2021/07/14 07:24:25;;;;;;;;;7.33;5.00;;;;;17.45;73.69;101165.28;5053485;28;45510;-74
2021/07/14 07:26:50;;;;;;;;;6.33;5.33;;;;;17.50;73.15;101160.34;5051350;28;45375;-74
2021/07/14 07:29:17;;;;;;;;;6.33;6.33;;;;;17.51;72.26;101166.50;5053628;28;46085;-76
2021/07/14 07:31:43;;;;;;;;;6.67;5.00;;;;;17.53;72.79;101167.19;5053553;28;45552;-75
2021/07/14 07:34:09;;;;;;;;;7.33;6.00;;;;;17.54;72.86;101156.44;5054990;28;45481;-75
2021/07/14 07:36:35;;;;;;;;;7.67;6.33;;;;;17.57;72.35;101145.50;5053193;28;45526;-74
2021/07/14 07:39:00;;;;;;;;;6.00;4.50;;;;;17.63;72.51;101168.81;5053234;28;45524;-76
2021/07/14 07:41:27;;;;;;;;;6.67;5.00;;;;;17.60;72.69;101145.19;5053274;28;45462;-76
2021/07/14 07:43:54;;;;;;;;;9.33;6.00;;;;;17.71;72.70;101161.91;5036535;28;45452;-74
2021/07/14 07:46:20;;;;;;;;;7.33;6.33;;;;;17.74;72.73;101162.44;5037365;28;48492;-75
2021/07/14 07:48:46;;;;;;;;;7.67;7.00;;;;;17.83;72.62;101160.72;5053068;28;45350;-75
2021/07/14 07:51:12;;;;;;;;;8.00;7.33;;;;;17.90;72.33;101166.25;5053304;28;45336;-75
2021/07/14 07:53:38;;;;;;;;;7.33;6.67;;;;;18.06;72.08;101165.59;5051411;28;45452;-75
2021/07/14 07:56:06;;;;;;;;;8.33;6.00;;;;;18.17;72.07;101177.84;5053003;28;46138;-74
2021/07/14 07:58:32;;;;;;;;;7.33;6.67;;;;;18.25;71.80;101176.09;5037753;28;45411;-75
2021/07/14 08:00:58;;;;;;;;;7.67;5.00;;;;;18.29;71.43;101165.94;5054379;28;45581;-76
2021/07/14 08:03:24;;;;;;;;;8.00;7.67;;;;;18.29;70.42;101174.78;5052553;28;45573;-74
2021/07/14 08:05:50;;;;;;;;;6.33;6.00;;;;;18.26;70.09;101177.72;5051408;28;45577;-76
2021/07/14 08:08:16;;;;;;;;;7.67;7.00;;;;;18.21;70.77;101180.00;5053627;28;45426;-75
2021/07/14 08:10:42;;;;;;;;;8.67;6.00;;;;;18.19;70.09;101178.50;5053132;28;45458;-77
2021/07/14 08:13:08;;;;;;;;;9.00;8.67;;;;;18.13;69.72;101183.44;5053505;28;45566;-74
2021/07/14 08:15:35;;;;;;;;;5.33;5.33;;;;;18.05;70.90;101186.03;5052682;28;45650;-75
2021/07/14 08:18:01;;;;;;;;;8.33;8.33;;;;;18.00;70.29;101187.47;5053408;28;47119;-75
2021/07/14 08:20:28;;;;;;;;;7.00;6.00;;;;;17.93;70.66;101174.78;5038640;28;45528;-74
2021/07/14 08:22:54;;;;;;;;;8.00;6.33;;;;;17.94;70.23;101187.09;5039569;28;45621;-74
2021/07/14 08:25:20;;;;;;;;;4.00;4.00;;;;;17.86;69.87;101181.66;5058194;28;47060;-74
2021/07/14 08:27:45;;;;;;;;;7.00;6.00;;;;;17.85;70.06;101189.78;5055891;28;45544;-75
2021/07/14 08:30:12;;;;;;;;;6.67;6.67;;;;;17.82;70.47;101201.53;5056361;28;45485;-75
2021/07/14 08:32:38;;;;;;;;;10.00;5.33;;;;;17.81;70.65;101197.22;5054020;28;45497;-75
2021/07/14 08:35:05;;;;;;;;;4.00;4.00;;;;;17.76;70.74;101183.53;5056179;28;45499;-77
2021/07/14 08:37:30;;;;;;;;;9.67;8.00;;;;;17.76;69.91;101199.47;5057535;28;45291;-76
2021/07/14 08:39:57;;;;;;;;;6.33;5.00;;;;;17.73;70.34;101202.44;5056808;28;45492;-74
2021/07/14 08:42:24;;;;;;;;;7.00;4.00;;;;;17.70;70.46;101200.09;5055898;28;45514;-74
2021/07/14 08:44:50;;;;;;;;;7.67;7.33;;;;;17.75;70.64;101203.16;5054731;28;46307;-76
2021/07/14 08:47:17;;;;;;;;;6.33;5.33;;;;;17.76;70.90;101202.13;5057681;28;45461;-75
2021/07/14 08:49:44;;;;;;;;;6.67;6.67;;;;;17.74;70.59;101198.81;5056237;28;45613;-76
2021/07/14 08:52:10;;;;;;;;;8.67;5.67;;;;;17.79;70.21;101212.47;5058351;28;45427;-75
2021/07/14 08:54:43;;;;;;;;;4.33;4.00;;;;;17.77;69.19;101203.81;5055886;28;46576;-75
2021/07/14 08:57:13;;;;;;;;;7.67;5.67;;;;;17.72;69.71;101211.41;5055999;28;45427;-75
2021/07/14 08:59:39;;;;;;;;;4.00;4.00;;;;;17.72;69.80;101211.41;5055889;28;45473;-73
2021/07/14 09:02:06;;;;;;;;;7.00;5.00;;;;;17.76;70.38;101207.44;5056427;28;45565;-74
2021/07/14 09:04:32;;;;;;;;;5.00;5.00;;;;;17.84;70.67;101214.69;5057114;28;45537;-74
2021/07/14 09:06:57;;;;;;;;;6.33;5.67;;;;;17.90;70.28;101214.91;5056731;28;45509;-76
2021/07/14 09:09:23;;;;;;;;;4.67;4.67;;;;;17.94;69.87;101224.31;5056084;28;45797;-74
2021/07/14 09:11:51;;;;;;;;;8.00;4.67;;;;;17.92;69.18;101214.78;5049146;28;45524;-74
2021/07/14 09:14:32;;;;;;;;;5.00;5.00;;;;;17.91;68.69;101221.06;5055663;28;45507;-77
2021/07/14 09:17:00;;;;;;;;;4.67;4.00;;;;;17.92;69.16;101222.75;5046908;28;45368;-74
2021/07/14 09:19:28;;;;;;;;;5.67;5.67;;;;;17.94;69.61;101210.16;5057461;28;45423;-74
2021/07/14 09:21:53;;;;;;;;;5.00;5.00;;;;;18.01;69.88;101223.69;5055261;28;45320;-75
2021/07/14 09:24:23;;;;;;;;;6.00;4.67;;;;;18.03;69.65;101224.38;5054320;28;46321;-74
2021/07/14 09:26:49;;;;;;;;;5.33;4.00;;;;;18.08;69.31;101219.44;5056129;28;45348;-75
2021/07/14 09:29:14;;;;;;;;;6.00;5.00;;;;;18.11;69.60;101222.66;5055387;28;45412;-76
2021/07/14 09:31:46;;;;;;;;;8.00;6.33;;;;;18.17;69.25;101209.72;5055341;28;45323;-74
2021/07/14 09:34:31;;;;;;;;;16.00;12.67;;;;;18.18;68.47;101225.53;5056762;28;45556;-74
2021/07/14 09:36:59;;;;;;;;;28.33;23.33;;;;;18.17;68.85;101213.22;5056093;28;45419;-74
2021/07/14 09:39:39;;;;;;;;;9.67;9.00;;;;;18.21;68.89;101219.91;5054765;28;45465;-75
2021/07/14 09:42:05;;;;;;;;;8.00;7.00;;;;;18.23;68.35;101215.28;5055158;28;45375;-76
2021/07/14 09:44:30;;;;;;;;;12.67;9.67;;;;;18.27;68.26;101223.78;5049644;28;47810;-76
2021/07/14 09:47:35;;;;;;;;;37.67;31.00;;;;;18.31;68.07;101220.66;5055138;28;45451;-75
2021/07/14 09:50:00;;;;;;;;;28.67;25.00;;;;;18.37;67.81;101221.88;4980166;28;45479;-75
2021/07/14 09:52:26;;;;;;;;;8.33;7.33;;;;;18.44;67.94;101233.56;4995186;28;45310;-77
2021/07/14 09:55:05;;;;;;;;;7.67;6.33;;;;;18.50;67.59;101226.81;4995154;28;45798;-75
2021/07/14 09:57:30;;;;;;;;;6.33;6.33;;;;;18.52;67.50;101232.78;4993967;28;45418;-76
2021/07/14 09:59:55;;;;;;;;;4.00;4.00;;;;;18.54;66.58;101233.50;4994366;28;45352;-76
2021/07/14 10:02:21;;;;;;;;;8.00;8.00;;;;;18.50;66.51;101229.47;4993751;28;45429;-75
2021/07/14 10:04:47;;;;;;;;;5.00;5.00;;;;;18.46;65.91;101236.06;4993964;28;46314;-75
2021/07/14 10:07:24;;;;;;;;;7.67;7.67;;;;;18.46;67.06;101241.38;4994596;28;45553;-74
2021/07/14 10:09:50;;;;;;;;;4.00;4.00;;;;;18.42;66.32;101232.91;4994392;28;45495;-75
2021/07/14 10:12:25;;;;;;;;;7.00;5.33;;;;;18.44;66.86;101233.56;4995599;28;45421;-75
2021/07/14 10:14:50;;;;;;;;;7.67;5.00;;;;;18.46;66.93;101236.06;4997175;28;45378;-76
2021/07/14 10:17:44;;;;;;;;;8.67;7.00;;;;;18.48;67.16;101242.09;4995866;28;45532;-76
2021/07/14 10:20:35;;;;;;;;;5.33;4.67;;;;;18.51;66.94;101249.75;4981313;28;45520;-75
2021/07/14 10:23:09;;;;;;;;;61.50;49.50;;;;;18.56;67.34;101251.97;4984256;28;45605;-75
2021/07/14 10:25:37;;;;;;;;;22.33;17.33;;;;;18.59;67.32;101249.84;5053767;28;47594;-75
2021/07/14 10:28:04;;;;;;;;;9.33;7.00;;;;;18.66;66.78;101243.91;5055424;28;45511;-77
2021/07/14 10:30:31;;;;;;;;;5.67;5.67;;;;;18.67;65.74;101246.41;5054615;28;45355;-75
2021/07/14 10:32:57;;;;;;;;;7.67;7.67;;;;;18.67;66.34;101240.22;5032546;28;45279;-74
2021/07/14 10:35:25;;;;;;;;;6.33;6.00;;;;;18.78;65.53;101246.13;5043959;28;45573;-76
2021/07/14 10:37:56;;;;;;;;;6.00;6.00;;;;;18.90;66.15;101248.56;5045748;28;45352;-74
2021/07/14 10:40:23;;;;;;;;;23.33;19.67;;;;;18.96;66.07;101246.13;5057426;28;45445;-75
2021/07/14 10:42:50;;;;;;;;;20.00;15.67;;;;;19.08;65.16;101248.53;5056196;28;45699;-75
2021/07/14 10:45:16;;;;;;;;;17.00;14.33;;;;;19.15;65.32;101256.72;5057516;28;45372;-76
2021/07/14 10:47:43;;;;;;;;;8.33;8.33;;;;;19.16;65.08;101247.75;5056836;28;45441;-75
2021/07/14 10:50:10;;;;;;;;;9.00;5.67;;;;;19.22;65.16;101252.44;5056647;28;45297;-75
2021/07/14 10:52:37;;;;;;;;;5.00;5.00;;;;;19.27;65.53;101256.28;5057101;28;45344;-75
2021/07/14 10:55:03;;;;;;;;;5.00;5.00;;;;;19.36;65.28;101257.19;5059740;28;47151;-75
2021/07/14 10:57:35;;;;;;;;;13.67;12.67;;;;;19.47;64.49;101261.38;5055983;28;45506;-77
2021/07/14 11:00:02;;;;;;;;;8.00;6.33;;;;;19.56;65.16;101255.09;5054222;28;45539;-76
2021/07/14 11:02:48;;;;;;;;;5.00;5.00;;;;;19.67;64.18;101255.78;5053866;28;45471;-75
2021/07/14 11:05:15;;;;;;;;;6.00;6.00;;;;;19.78;64.86;101268.84;5053993;28;45553;-76
2021/07/14 11:07:46;;;;;;;;;8.33;6.00;;;;;19.90;64.24;101259.59;5054522;28;45567;-74
2021/07/14 11:10:22;;;;;;;;;7.00;7.00;;;;;20.03;64.88;101260.94;5053834;28;45437;-75
2021/07/14 11:12:48;;;;;;;;;5.67;5.00;;;;;20.16;63.55;101261.31;5053900;28;45547;-76
2021/07/14 11:15:33;;;;;;;;;12.00;10.00;;;;;20.23;62.80;101272.97;5053789;28;46126;-74
2021/07/14 11:17:59;;;;;;;;;9.00;8.00;;;;;20.27;63.34;101274.31;5052453;28;45383;-75
2021/07/14 11:20:40;;;;;;;;;6.00;5.00;;;;;20.34;63.79;101269.16;5052858;28;45326;-77
2021/07/14 11:23:21;;;;;;;;;4.00;4.00;;;;;20.36;64.10;101269.84;5052859;28;45577;-75
2021/07/14 11:25:48;;;;;;;;;7.67;7.00;;;;;20.48;63.31;101265.00;5053041;28;45575;-75
2021/07/14 11:28:14;;;;;;;;;10.33;9.00;;;;;20.59;62.26;101272.69;5054958;28;45570;-76
2021/07/14 11:30:42;;;;;;;;;7.00;7.00;;;;;20.65;62.02;101273.03;5036813;28;45467;-75
2021/07/14 11:33:09;;;;;;;;;7.00;5.33;;;;;20.74;62.77;101270.19;5053151;28;45557;-74